createdAt,value
2022-11-10T00:00:54.352Z,1008.92
2022-11-10T00:01:54.340Z,1008.89
2022-11-10T00:02:54.333Z,1008.85
2022-11-10T00:03:54.340Z,1008.86
2022-11-10T00:04:54.329Z,1008.84
2022-11-10T00:05:54.292Z,1008.85
2022-11-10T00:06:54.327Z,1008.85
2022-11-10T00:07:54.272Z,1008.87
2022-11-10T00:08:54.242Z,1008.89
2022-11-10T00:09:54.277Z,1008.84
2022-11-10T00:10:54.236Z,1008.91
2022-11-10T00:11:54.206Z,1008.96
2022-11-10T00:12:54.202Z,1008.97
2022-11-10T00:13:54.177Z,1008.92
2022-11-10T00:14:54.201Z,1008.96
2022-11-10T00:15:54.170Z,1008.98
2022-11-10T00:16:54.142Z,1009.00
2022-11-10T00:17:54.158Z,1009.05
2022-11-10T00:18:54.132Z,1009.06
2022-11-10T00:19:54.178Z,1009.04
2022-11-10T00:20:54.101Z,1009.06
2022-11-10T00:21:54.123Z,1009.03
2022-11-10T00:22:54.112Z,1009.00
2022-11-10T00:23:54.097Z,1009.04
2022-11-10T00:24:54.111Z,1009.09
2022-11-10T00:25:54.066Z,1009.03
2022-11-10T00:26:54.041Z,1009.04
2022-11-10T00:27:54.040Z,1009.03
2022-11-10T00:28:54.021Z,1009.02
2022-11-10T00:29:54.052Z,1009.02
2022-11-10T00:30:54.013Z,1009.03
2022-11-10T00:31:53.991Z,1009.05
2022-11-10T00:32:53.990Z,1009.04
2022-11-10T00:33:53.965Z,1009.09
2022-11-10T00:34:53.996Z,1009.11
2022-11-10T00:35:53.955Z,1009.10
2022-11-10T00:36:53.931Z,1009.16
2022-11-10T00:37:53.940Z,1009.14
2022-11-10T00:38:53.901Z,1009.11
2022-11-10T00:39:53.948Z,1009.16
2022-11-10T00:40:53.888Z,1009.15
2022-11-10T00:41:53.876Z,1009.19
2022-11-10T00:42:53.870Z,1009.17
2022-11-10T00:43:53.850Z,1009.20
2022-11-10T00:44:53.856Z,1009.22
2022-11-10T00:45:53.827Z,1009.20
2022-11-10T00:46:53.827Z,1009.23
2022-11-10T00:47:53.817Z,1009.25
2022-11-10T00:48:53.801Z,1009.27
2022-11-10T00:49:53.825Z,1009.27
2022-11-10T00:50:53.770Z,1009.33
2022-11-10T00:51:53.756Z,1009.27
2022-11-10T00:52:53.737Z,1009.33
2022-11-10T00:53:53.731Z,1009.34
2022-11-10T00:54:53.766Z,1009.34
2022-11-10T00:55:53.752Z,1009.41
2022-11-10T00:56:53.721Z,1009.38
2022-11-10T00:57:53.690Z,1009.45
2022-11-10T00:58:53.680Z,1009.46
2022-11-10T00:59:53.719Z,1009.47
2022-11-10T01:00:53.686Z,1009.50
2022-11-10T01:01:53.651Z,1009.45
2022-11-10T01:02:53.648Z,1009.48
2022-11-10T01:03:53.631Z,1009.47
2022-11-10T01:04:53.653Z,1009.49
2022-11-10T01:05:53.591Z,1009.49
2022-11-10T01:06:53.660Z,1009.48
2022-11-10T01:07:53.593Z,1009.53
2022-11-10T01:08:53.591Z,1009.56
2022-11-10T01:09:53.589Z,1009.55
2022-11-10T01:10:53.547Z,1009.53
2022-11-10T01:11:53.532Z,1009.51
2022-11-10T01:12:53.525Z,1009.53
2022-11-10T01:13:53.514Z,1009.50
2022-11-10T01:14:53.527Z,1009.50
2022-11-10T01:15:53.495Z,1009.51
2022-11-10T01:16:53.508Z,1009.58
2022-11-10T01:17:53.490Z,1009.57
2022-11-10T01:18:53.455Z,1009.62
2022-11-10T01:19:53.481Z,1009.60
2022-11-10T01:20:53.431Z,1009.58
2022-11-10T01:21:53.434Z,1009.60
2022-11-10T01:22:53.408Z,1009.62
2022-11-10T01:23:53.417Z,1009.67
2022-11-10T01:24:53.434Z,1009.59
2022-11-10T01:25:53.393Z,1009.65
2022-11-10T01:26:53.374Z,1009.65
2022-11-10T01:27:53.354Z,1009.68
2022-11-10T01:28:53.321Z,1009.63
2022-11-10T01:29:53.345Z,1009.64
2022-11-10T01:30:53.305Z,1009.66
2022-11-10T01:31:53.297Z,1009.68
2022-11-10T01:32:53.309Z,1009.70
2022-11-10T01:33:53.280Z,1009.72
2022-11-10T01:34:53.305Z,1009.73
2022-11-10T01:35:53.273Z,1009.74
2022-11-10T01:36:53.254Z,1009.74
2022-11-10T01:37:53.253Z,1009.71
2022-11-10T01:38:53.236Z,1009.72
2022-11-10T01:39:53.275Z,1009.67
2022-11-10T01:40:53.254Z,1009.74
2022-11-10T01:41:53.187Z,1009.71
2022-11-10T01:42:53.192Z,1009.77
2022-11-10T01:43:53.150Z,1009.76
2022-11-10T01:44:53.160Z,1009.81
2022-11-10T01:45:53.191Z,1009.84
2022-11-10T01:46:53.155Z,1009.80
2022-11-10T01:47:53.120Z,1009.87
2022-11-10T01:48:53.126Z,1009.81
2022-11-10T01:49:53.103Z,1009.81
2022-11-10T01:50:53.127Z,1009.79
2022-11-10T01:51:53.080Z,1009.81
2022-11-10T01:52:53.068Z,1009.83
2022-11-10T01:53:53.082Z,1009.85
2022-11-10T01:54:53.079Z,1009.83
2022-11-10T01:55:53.067Z,1009.84
2022-11-10T01:56:53.027Z,1009.82
2022-11-10T01:57:53.004Z,1009.79
2022-11-10T01:58:53.016Z,1009.76
2022-11-10T01:59:52.976Z,1009.75
2022-11-10T02:00:53.070Z,1009.76
2022-11-10T02:01:52.961Z,1009.76
2022-11-10T02:02:52.971Z,1009.77
2022-11-10T02:03:52.956Z,1009.75
2022-11-10T02:04:52.947Z,1009.77
2022-11-10T02:05:52.962Z,1009.75
2022-11-10T02:06:52.959Z,1009.76
2022-11-10T02:07:52.894Z,1009.77
2022-11-10T02:08:52.878Z,1009.78
2022-11-10T02:09:52.870Z,1009.79
2022-11-10T02:10:52.905Z,1009.82
2022-11-10T02:11:52.859Z,1009.83
2022-11-10T02:12:52.848Z,1009.86
2022-11-10T02:13:52.831Z,1009.87
2022-11-10T02:14:52.819Z,1009.88
2022-11-10T02:15:52.848Z,1009.86
2022-11-10T02:16:52.807Z,1009.93
2022-11-10T02:17:52.782Z,1009.97
2022-11-10T02:18:52.797Z,1009.94
2022-11-10T02:19:52.761Z,1009.96
2022-11-10T02:20:52.778Z,1009.98
2022-11-10T02:21:52.744Z,1010.03
2022-11-10T02:22:52.719Z,1009.98
2022-11-10T02:23:52.705Z,1010.04
2022-11-10T02:24:52.713Z,1010.02
2022-11-10T02:25:52.735Z,1009.99
2022-11-10T02:26:52.685Z,1010.03
2022-11-10T02:27:52.659Z,1009.98
2022-11-10T02:28:52.672Z,1010.02
2022-11-10T02:29:52.644Z,1010.04
2022-11-10T02:30:52.663Z,1010.07
2022-11-10T02:31:52.633Z,1010.08
2022-11-10T02:32:52.620Z,1010.09
2022-11-10T02:33:52.602Z,1010.09
2022-11-10T02:34:52.584Z,1010.17
2022-11-10T02:35:52.605Z,1010.22
2022-11-10T02:36:52.581Z,1010.22
2022-11-10T02:37:52.561Z,1010.22
2022-11-10T02:38:52.553Z,1010.27
2022-11-10T02:39:52.561Z,1010.29
2022-11-10T02:40:52.553Z,1010.30
2022-11-10T02:41:52.502Z,1010.28
2022-11-10T02:42:52.514Z,1010.34
2022-11-10T02:43:52.482Z,1010.30
2022-11-10T02:44:52.477Z,1010.32
2022-11-10T02:45:52.498Z,1010.34
2022-11-10T02:46:52.442Z,1010.32
2022-11-10T02:47:52.453Z,1010.35
2022-11-10T02:48:52.429Z,1010.38
2022-11-10T02:49:52.431Z,1010.32
2022-11-10T02:50:52.464Z,1010.35
2022-11-10T02:51:52.419Z,1010.38
2022-11-10T02:52:52.392Z,1010.40
2022-11-10T02:53:52.381Z,1010.45
2022-11-10T02:54:52.385Z,1010.45
2022-11-10T02:55:52.404Z,1010.44
2022-11-10T02:56:52.387Z,1010.49
2022-11-10T02:57:52.323Z,1010.53
2022-11-10T02:58:52.330Z,1010.52
2022-11-10T02:59:52.308Z,1010.50
2022-11-10T03:00:52.367Z,1010.53
2022-11-10T03:01:52.329Z,1010.49
2022-11-10T03:02:52.310Z,1010.53
2022-11-10T03:03:52.254Z,1010.52
2022-11-10T03:04:52.273Z,1010.51
2022-11-10T03:05:52.243Z,1010.52
2022-11-10T03:06:52.293Z,1010.58
2022-11-10T03:07:52.249Z,1010.54
2022-11-10T03:08:52.207Z,1010.55
2022-11-10T03:09:52.208Z,1010.60
2022-11-10T03:10:52.205Z,1010.63
2022-11-10T03:11:52.218Z,1010.63
2022-11-10T03:12:52.174Z,1010.68
2022-11-10T03:14:01.401Z,1010.70
2022-11-10T03:14:53.152Z,1010.70
2022-11-10T03:15:52.144Z,1010.70
2022-11-10T03:16:52.155Z,1010.69
2022-11-10T03:17:52.106Z,1010.65
2022-11-10T03:18:52.121Z,1010.71
2022-11-10T03:19:52.090Z,1010.71
2022-11-10T03:20:52.091Z,1010.75
2022-11-10T03:21:52.105Z,1010.76
2022-11-10T03:22:52.047Z,1010.76
2022-11-10T03:23:52.040Z,1010.80
2022-11-10T03:24:52.031Z,1010.85
2022-11-10T03:25:52.055Z,1010.86
2022-11-10T03:26:52.056Z,1010.91
2022-11-10T03:27:52.012Z,1010.91
2022-11-10T03:28:51.989Z,1010.95
2022-11-10T03:29:51.987Z,1010.97
2022-11-10T03:30:51.967Z,1010.99
2022-11-10T03:31:51.996Z,1011.02
2022-11-10T03:32:51.959Z,1011.04
2022-11-10T03:33:51.941Z,1011.04
2022-11-10T03:34:51.946Z,1011.05
2022-11-10T03:35:51.906Z,1011.05
2022-11-10T03:36:51.927Z,1011.08
2022-11-10T03:37:51.896Z,1011.07
2022-11-10T03:38:51.885Z,1011.07
2022-11-10T03:39:51.870Z,1011.15
2022-11-10T03:41:17.682Z,1011.09
2022-11-10T03:41:52.884Z,1011.13
2022-11-10T03:42:51.839Z,1011.13
2022-11-10T03:43:51.823Z,1011.15
2022-11-10T03:44:51.813Z,1011.17
2022-11-10T03:45:51.803Z,1011.17
2022-11-10T03:46:52.044Z,1011.19
2022-11-10T03:47:51.795Z,1011.19
2022-11-10T03:48:53.692Z,1011.22
2022-11-10T03:49:51.768Z,1011.21
2022-11-10T03:50:51.750Z,1011.22
2022-11-10T03:51:51.756Z,1011.21
2022-11-10T03:52:51.737Z,1011.23
2022-11-10T03:53:51.724Z,1011.25
2022-11-10T03:54:51.719Z,1011.26
2022-11-10T03:55:51.694Z,1011.27
2022-11-10T03:56:51.715Z,1011.26
2022-11-10T03:57:51.675Z,1011.32
2022-11-10T03:58:51.665Z,1011.34
2022-11-10T03:59:51.641Z,1011.37
2022-11-10T04:00:51.620Z,1011.39
2022-11-10T04:01:51.694Z,1011.37
2022-11-10T04:02:51.602Z,1011.35
2022-11-10T04:03:51.885Z,1011.36
2022-11-10T04:04:51.591Z,1011.36
2022-11-10T04:05:51.591Z,1011.38
2022-11-10T04:06:51.649Z,1011.40
2022-11-10T04:07:51.555Z,1011.42
2022-11-10T04:08:51.552Z,1011.45
2022-11-10T04:09:51.560Z,1011.44
2022-11-10T04:10:51.535Z,1011.49
2022-11-10T04:11:51.581Z,1011.48
2022-11-10T04:12:51.516Z,1011.52
2022-11-10T04:13:51.484Z,1011.55
2022-11-10T04:14:51.498Z,1011.53
2022-11-10T04:15:51.470Z,1011.52
2022-11-10T04:16:51.550Z,1011.52
2022-11-10T04:17:51.443Z,1011.56
2022-11-10T04:18:51.444Z,1011.55
2022-11-10T04:19:51.417Z,1011.55
2022-11-10T04:20:51.412Z,1011.57
2022-11-10T04:21:51.448Z,1011.61
2022-11-10T04:22:51.392Z,1011.59
2022-11-10T04:23:51.382Z,1011.61
2022-11-10T04:24:51.379Z,1011.64
2022-11-10T04:25:51.365Z,1011.60
2022-11-10T04:26:51.359Z,1011.60
2022-11-10T04:27:51.376Z,1011.63
2022-11-10T04:28:51.326Z,1011.66
2022-11-10T04:29:51.314Z,1011.67
2022-11-10T04:30:51.309Z,1011.65
2022-11-10T04:31:51.293Z,1011.67
2022-11-10T04:32:51.313Z,1011.69
2022-11-10T04:33:51.272Z,1011.74
2022-11-10T04:34:51.277Z,1011.75
2022-11-10T04:35:51.247Z,1011.73
2022-11-10T04:36:51.231Z,1011.77
2022-11-10T04:37:51.242Z,1011.81
2022-11-10T04:38:51.203Z,1011.83
2022-11-10T04:39:51.177Z,1011.83
2022-11-10T04:40:51.188Z,1011.85
2022-11-10T04:41:51.163Z,1011.77
2022-11-10T04:42:51.218Z,1011.88
2022-11-10T04:43:51.150Z,1011.88
2022-11-10T04:44:51.138Z,1011.87
2022-11-10T04:45:51.125Z,1011.86
2022-11-10T04:46:51.127Z,1011.89
2022-11-10T04:47:51.147Z,1011.91
2022-11-10T04:48:51.112Z,1011.92
2022-11-10T04:49:51.122Z,1011.98
2022-11-10T04:50:51.095Z,1011.95
2022-11-10T04:51:51.092Z,1011.92
2022-11-10T04:52:51.099Z,1011.97
2022-11-10T04:53:51.053Z,1011.99
2022-11-10T04:54:51.029Z,1011.98
2022-11-10T04:55:51.028Z,1012.00
2022-11-10T04:56:51.029Z,1012.04
2022-11-10T04:57:51.020Z,1012.08
2022-11-10T04:58:50.986Z,1012.10
2022-11-10T04:59:50.986Z,1012.10
2022-11-10T05:00:51.069Z,1012.09
2022-11-10T05:01:50.965Z,1012.08
2022-11-10T05:02:50.996Z,1012.12
2022-11-10T05:03:50.944Z,1012.10
2022-11-10T05:04:50.933Z,1012.11
2022-11-10T05:05:50.915Z,1012.03
2022-11-10T05:06:50.965Z,1012.06
2022-11-10T05:07:50.932Z,1012.06
2022-11-10T05:08:50.898Z,1012.11
2022-11-10T05:09:50.869Z,1012.12
2022-11-10T05:10:50.882Z,1012.14
2022-11-10T05:11:50.847Z,1012.17
2022-11-10T05:12:50.974Z,1012.17
2022-11-10T05:13:50.827Z,1012.19
2022-11-10T05:14:50.813Z,1012.22
2022-11-10T05:15:50.792Z,1012.19
2022-11-10T05:16:50.782Z,1012.18
2022-11-10T05:17:50.765Z,1012.22
2022-11-10T05:18:50.790Z,1012.19
2022-11-10T05:19:50.782Z,1012.25
2022-11-10T05:20:50.766Z,1012.25
2022-11-10T05:21:50.751Z,1012.25
2022-11-10T05:22:50.764Z,1012.26
2022-11-10T05:23:50.711Z,1012.27
2022-11-10T05:24:50.712Z,1012.29
2022-11-10T05:25:50.690Z,1012.32
2022-11-10T05:26:50.701Z,1012.30
2022-11-10T05:27:50.713Z,1012.32
2022-11-10T05:28:50.685Z,1012.34
2022-11-10T05:29:50.644Z,1012.36
2022-11-10T05:30:50.656Z,1012.37
2022-11-10T05:31:51.765Z,1012.33
2022-11-10T05:32:50.678Z,1012.40
2022-11-10T05:33:50.607Z,1012.39
2022-11-10T05:34:50.631Z,1012.43
2022-11-10T05:35:50.604Z,1012.40
2022-11-10T05:36:50.580Z,1012.41
2022-11-10T05:37:50.559Z,1012.42
2022-11-10T05:38:50.583Z,1012.44
2022-11-10T05:39:50.527Z,1012.47
2022-11-10T05:40:50.524Z,1012.48
2022-11-10T05:41:50.531Z,1012.51
2022-11-10T05:42:50.505Z,1012.53
2022-11-10T05:43:50.551Z,1012.54
2022-11-10T05:44:50.501Z,1012.53
2022-11-10T05:45:50.474Z,1012.53
2022-11-10T05:46:50.472Z,1012.59
2022-11-10T05:47:50.461Z,1012.60
2022-11-10T05:48:50.478Z,1012.59
2022-11-10T05:49:50.445Z,1012.59
2022-11-10T05:50:50.412Z,1012.62
2022-11-10T05:51:50.419Z,1012.62
2022-11-10T05:52:50.590Z,1012.66
2022-11-10T05:53:50.396Z,1012.65
2022-11-10T05:54:50.354Z,1012.71
2022-11-10T05:55:50.347Z,1012.72
2022-11-10T05:56:50.358Z,1012.75
2022-11-10T05:57:50.348Z,1012.79
2022-11-10T05:58:50.365Z,1012.80
2022-11-10T05:59:50.329Z,1012.84
2022-11-10T06:00:50.305Z,1012.83
2022-11-10T06:01:50.288Z,1012.83
2022-11-10T06:02:50.261Z,1012.86
2022-11-10T06:03:50.396Z,1012.89
2022-11-10T06:04:50.270Z,1012.90
2022-11-10T06:05:50.272Z,1012.91
2022-11-10T06:06:50.290Z,1012.97
2022-11-10T06:07:50.242Z,1012.98
2022-11-10T06:08:50.232Z,1013.02
2022-11-10T06:09:50.228Z,1013.10
2022-11-10T06:10:50.196Z,1013.09
2022-11-10T06:11:50.179Z,1013.10
2022-11-10T06:12:50.177Z,1013.14
2022-11-10T06:13:50.196Z,1013.17
2022-11-10T06:14:50.155Z,1013.20
2022-11-10T06:15:50.720Z,1013.24
2022-11-10T06:16:50.160Z,1013.25
2022-11-10T06:17:50.106Z,1013.31
2022-11-10T06:18:50.132Z,1013.31
2022-11-10T06:19:50.102Z,1013.38
2022-11-10T06:20:50.095Z,1013.38
2022-11-10T06:21:51.968Z,1013.40
2022-11-10T06:22:51.068Z,1013.42
2022-11-10T06:23:50.076Z,1013.41
2022-11-10T06:24:50.029Z,1013.44
2022-11-10T06:25:50.034Z,1013.49
2022-11-10T06:26:50.023Z,1013.52
2022-11-10T06:27:49.997Z,1013.54
2022-11-10T06:28:50.010Z,1013.58
2022-11-10T06:29:49.958Z,1013.56
2022-11-10T06:30:49.934Z,1013.61
2022-11-10T06:31:49.942Z,1013.62
2022-11-10T06:32:49.917Z,1013.61
2022-11-10T06:33:49.951Z,1013.65
2022-11-10T06:34:49.916Z,1013.64
2022-11-10T06:35:49.914Z,1013.69
2022-11-10T06:36:49.896Z,1013.72
2022-11-10T06:37:49.912Z,1013.74
2022-11-10T06:38:49.900Z,1013.77
2022-11-10T06:39:49.856Z,1013.81
2022-11-10T06:40:49.847Z,1013.90
2022-11-10T06:41:49.829Z,1013.88
2022-11-10T06:42:49.828Z,1013.94
2022-11-10T06:43:49.860Z,1013.87
2022-11-10T06:44:49.787Z,1013.87
2022-11-10T06:45:49.802Z,1013.96
2022-11-10T06:46:49.767Z,1013.91
2022-11-10T06:47:49.779Z,1013.94
2022-11-10T06:48:49.745Z,1013.95
2022-11-10T06:49:49.790Z,1013.94
2022-11-10T06:50:49.737Z,1014.01
2022-11-10T06:51:49.722Z,1013.98
2022-11-10T06:52:49.745Z,1014.06
2022-11-10T06:53:49.701Z,1014.05
2022-11-10T06:54:49.713Z,1014.07
2022-11-10T06:55:49.681Z,1014.05
2022-11-10T06:56:49.661Z,1014.12
2022-11-10T06:57:49.655Z,1014.16
2022-11-10T06:58:49.659Z,1014.15
2022-11-10T06:59:49.651Z,1014.15
2022-11-10T07:00:49.683Z,1014.17
2022-11-10T07:01:49.608Z,1014.18
2022-11-10T07:02:49.606Z,1014.17
2022-11-10T07:04:17.716Z,1014.15
2022-11-10T07:04:50.572Z,1014.21
2022-11-10T07:05:49.578Z,1014.21
2022-11-10T07:06:49.578Z,1014.24
2022-11-10T07:07:49.529Z,1014.22
2022-11-10T07:08:49.666Z,1014.29
2022-11-10T07:09:49.521Z,1014.29
2022-11-10T07:10:49.504Z,1014.34
2022-11-10T07:11:49.506Z,1014.33
2022-11-10T07:12:49.486Z,1014.32
2022-11-10T07:13:49.547Z,1014.36
2022-11-10T07:14:49.476Z,1014.40
2022-11-10T07:15:49.453Z,1014.43
2022-11-10T07:16:49.427Z,1014.44
2022-11-10T07:17:49.436Z,1014.41
2022-11-10T07:18:49.459Z,1014.49
2022-11-10T07:19:49.420Z,1014.53
2022-11-10T07:20:49.390Z,1014.52
2022-11-10T07:21:49.372Z,1014.57
2022-11-10T07:22:49.359Z,1014.60
2022-11-10T07:23:49.354Z,1014.61
2022-11-10T07:24:49.368Z,1014.63
2022-11-10T07:25:49.346Z,1014.72
2022-11-10T07:26:49.340Z,1014.73
2022-11-10T07:27:49.315Z,1014.75
2022-11-10T07:28:49.308Z,1014.73
2022-11-10T07:29:49.333Z,1014.83
2022-11-10T07:30:49.297Z,1014.83
2022-11-10T07:31:49.265Z,1014.88
2022-11-10T07:32:49.244Z,1014.86
2022-11-10T07:33:54.245Z,1014.90
2022-11-10T07:34:50.281Z,1014.93
2022-11-10T07:35:49.227Z,1014.91
2022-11-10T07:36:49.208Z,1014.96
2022-11-10T07:37:49.228Z,1014.92
2022-11-10T07:38:49.222Z,1014.98
2022-11-10T07:39:49.215Z,1014.98
2022-11-10T07:40:49.169Z,1014.99
2022-11-10T07:41:52.387Z,1015.01
2022-11-10T07:42:49.143Z,1014.96
2022-11-10T07:43:49.119Z,1015.02
2022-11-10T07:44:49.137Z,1015.06
2022-11-10T07:45:49.106Z,1015.07
2022-11-10T07:46:49.108Z,1015.03
2022-11-10T07:47:49.079Z,1015.06
2022-11-10T07:48:49.074Z,1015.03
2022-11-10T07:49:49.098Z,1015.08
2022-11-10T07:50:49.056Z,1015.12
2022-11-10T07:51:49.057Z,1015.15
2022-11-10T07:52:49.024Z,1015.12
2022-11-10T07:53:49.033Z,1015.13
2022-11-10T07:54:49.029Z,1015.17
2022-11-10T07:55:49.008Z,1015.19
2022-11-10T07:56:48.987Z,1015.22
2022-11-10T07:57:48.974Z,1015.23
2022-11-10T07:58:48.970Z,1015.23
2022-11-10T07:59:51.727Z,1015.27
2022-11-10T08:00:48.950Z,1015.27
2022-11-10T08:01:48.994Z,1015.30
2022-11-10T08:02:48.913Z,1015.31
2022-11-10T08:03:48.921Z,1015.36
2022-11-10T08:04:48.939Z,1015.27
2022-11-10T08:05:48.898Z,1015.38
2022-11-10T08:06:48.930Z,1015.35
2022-11-10T08:07:48.942Z,1015.35
2022-11-10T08:08:48.876Z,1015.39
2022-11-10T08:09:48.865Z,1015.42
2022-11-10T08:10:48.825Z,1015.54
2022-11-10T08:11:48.825Z,1015.51
2022-11-10T08:12:48.853Z,1015.56
2022-11-10T08:13:48.793Z,1015.51
2022-11-10T08:14:48.824Z,1015.61
2022-11-10T08:15:48.781Z,1015.58
2022-11-10T08:16:48.783Z,1015.56
2022-11-10T08:17:48.761Z,1015.63
2022-11-10T08:18:48.767Z,1015.58
2022-11-10T08:19:48.752Z,1015.60
2022-11-10T08:20:48.700Z,1015.59
2022-11-10T08:21:48.709Z,1015.67
2022-11-10T08:22:48.680Z,1015.67
2022-11-10T08:23:48.690Z,1015.67
2022-11-10T08:24:48.699Z,1015.67
2022-11-10T08:25:48.664Z,1015.68
2022-11-10T08:26:48.659Z,1015.68
2022-11-10T08:27:48.654Z,1015.76
2022-11-10T08:28:48.635Z,1015.76
2022-11-10T08:29:48.652Z,1015.77
2022-11-10T08:30:48.619Z,1015.75
2022-11-10T08:31:48.592Z,1015.83
2022-11-10T08:32:48.579Z,1015.83
2022-11-10T08:33:48.566Z,1015.86
2022-11-10T08:34:48.590Z,1015.85
2022-11-10T08:35:48.572Z,1015.86
2022-11-10T08:36:48.534Z,1015.80
2022-11-10T08:37:48.538Z,1015.82
2022-11-10T08:38:48.525Z,1015.85
2022-11-10T08:39:48.541Z,1015.81
2022-11-10T08:40:48.487Z,1015.86
2022-11-10T08:41:48.493Z,1015.88
2022-11-10T08:42:48.482Z,1015.88
2022-11-10T08:43:48.467Z,1015.95
2022-11-10T08:44:48.485Z,1015.91
2022-11-10T08:45:48.431Z,1015.94
2022-11-10T08:46:48.442Z,1015.89
2022-11-10T08:47:48.418Z,1015.89
2022-11-10T08:48:48.410Z,1015.89
2022-11-10T08:49:48.421Z,1015.91
2022-11-10T08:50:48.371Z,1015.88
2022-11-10T08:51:48.378Z,1015.89
2022-11-10T08:52:48.339Z,1015.99
2022-11-10T08:53:48.357Z,1015.98
2022-11-10T08:54:48.390Z,1016.03
2022-11-10T08:55:48.333Z,1016.00
2022-11-10T08:56:48.307Z,1016.08
2022-11-10T08:57:48.303Z,1016.02
2022-11-10T08:58:53.122Z,1016.06
2022-11-10T08:59:49.326Z,1016.13
2022-11-10T09:00:48.250Z,1016.09
2022-11-10T09:01:48.236Z,1016.10
2022-11-10T09:02:48.277Z,1016.07
2022-11-10T09:03:48.256Z,1016.09
2022-11-10T09:04:48.265Z,1016.09
2022-11-10T09:05:49.025Z,1016.13
2022-11-10T09:06:48.226Z,1016.14
2022-11-10T09:07:48.197Z,1016.11
2022-11-10T09:08:48.164Z,1016.22
2022-11-10T09:10:05.886Z,1016.22
2022-11-10T09:10:49.183Z,1016.20
2022-11-10T09:11:48.128Z,1016.21
2022-11-10T09:12:48.136Z,1016.22
2022-11-10T09:13:48.127Z,1016.21
2022-11-10T09:14:48.103Z,1016.25
2022-11-10T09:15:48.144Z,1016.27
2022-11-10T09:16:48.102Z,1016.21
2022-11-10T09:17:48.080Z,1016.26
2022-11-10T09:18:48.046Z,1016.27
2022-11-10T09:19:48.112Z,1016.29
2022-11-10T09:20:48.081Z,1016.34
2022-11-10T09:21:48.041Z,1016.39
2022-11-10T09:22:48.004Z,1016.30
2022-11-10T09:23:48.019Z,1016.36
2022-11-10T09:24:47.997Z,1016.39
2022-11-10T09:25:48.019Z,1016.41
2022-11-10T09:26:47.957Z,1016.41
2022-11-10T09:27:47.966Z,1016.38
2022-11-10T09:28:47.952Z,1016.44
2022-11-10T09:29:47.951Z,1016.52
2022-11-10T09:30:47.967Z,1016.50
2022-11-10T09:31:47.915Z,1016.58
2022-11-10T09:32:47.920Z,1016.58
2022-11-10T09:33:47.972Z,1016.65
2022-11-10T09:34:51.889Z,1016.61
2022-11-10T09:35:48.896Z,1016.64
2022-11-10T09:36:47.846Z,1016.67
2022-11-10T09:37:47.965Z,1016.66
2022-11-10T09:38:47.834Z,1016.71
2022-11-10T09:39:47.816Z,1016.71
2022-11-10T09:40:47.828Z,1016.72
2022-11-10T09:41:47.793Z,1016.75
2022-11-10T09:42:47.799Z,1016.75
2022-11-10T09:43:47.783Z,1016.75
2022-11-10T09:44:47.773Z,1016.76
2022-11-10T09:45:47.785Z,1016.71
2022-11-10T09:46:47.749Z,1016.72
2022-11-10T09:47:57.431Z,1016.77
2022-11-10T09:48:48.714Z,1016.74
2022-11-10T09:49:47.722Z,1016.75
2022-11-10T09:50:47.767Z,1016.78
2022-11-10T09:51:48.536Z,1016.76
2022-11-10T09:52:47.672Z,1016.70
2022-11-10T09:53:47.671Z,1016.73
2022-11-10T09:54:47.651Z,1016.74
2022-11-10T09:55:47.660Z,1016.77
2022-11-10T09:56:47.618Z,1016.75
2022-11-10T09:57:49.006Z,1016.74
2022-11-10T09:58:47.640Z,1016.80
2022-11-10T09:59:47.592Z,1016.76
2022-11-10T10:00:47.615Z,1016.74
2022-11-10T10:01:47.628Z,1016.72
2022-11-10T10:02:47.553Z,1016.79
2022-11-10T10:03:47.573Z,1016.80
2022-11-10T10:04:51.923Z,1016.84
2022-11-10T10:05:47.575Z,1016.83
2022-11-10T10:07:09.616Z,1016.83
2022-11-10T10:07:48.611Z,1016.89
2022-11-10T10:08:47.504Z,1016.86
2022-11-10T10:09:47.491Z,1016.88
2022-11-10T10:10:47.536Z,1016.83
2022-11-10T10:11:47.448Z,1016.85
2022-11-10T10:12:47.447Z,1016.80
2022-11-10T10:13:47.444Z,1016.89
2022-11-10T10:14:47.438Z,1016.89
2022-11-10T10:15:47.447Z,1016.90
2022-11-10T10:16:47.437Z,1016.90
2022-11-10T10:17:47.399Z,1016.94
2022-11-10T10:18:47.402Z,1016.98
2022-11-10T10:19:47.364Z,1016.94
2022-11-10T10:20:47.404Z,1016.89
2022-11-10T10:21:47.348Z,1016.99
2022-11-10T10:22:47.343Z,1016.95
2022-11-10T10:24:08.406Z,1016.96
2022-11-10T10:24:48.313Z,1016.85
2022-11-10T10:25:47.339Z,1016.81
2022-11-10T10:26:47.325Z,1016.91
2022-11-10T10:27:47.280Z,1016.90
2022-11-10T10:28:47.285Z,1016.91
2022-11-10T10:29:47.247Z,1016.84
2022-11-10T10:30:47.293Z,1016.89
2022-11-10T10:31:47.236Z,1016.87
2022-11-10T10:32:47.214Z,1016.81
2022-11-10T10:33:47.217Z,1016.84
2022-11-10T10:34:47.209Z,1016.81
2022-11-10T10:35:47.214Z,1016.79
2022-11-10T10:36:47.181Z,1016.75
2022-11-10T10:37:47.177Z,1016.81
2022-11-10T10:38:47.152Z,1016.79
2022-11-10T10:39:47.141Z,1016.78
2022-11-10T10:40:47.179Z,1016.76
2022-11-10T10:41:47.117Z,1016.83
2022-11-10T10:42:47.141Z,1016.79
2022-11-10T10:43:47.090Z,1016.83
2022-11-10T10:44:47.096Z,1016.78
2022-11-10T10:45:47.196Z,1016.78
2022-11-10T10:46:47.084Z,1016.79
2022-11-10T10:47:47.044Z,1016.86
2022-11-10T10:48:50.501Z,1016.84
2022-11-10T10:49:47.013Z,1016.88
2022-11-10T10:50:47.035Z,1016.85
2022-11-10T10:51:47.009Z,1016.88
2022-11-10T10:52:47.002Z,1016.92
2022-11-10T10:53:47.006Z,1016.95
2022-11-10T10:54:46.973Z,1016.88
2022-11-10T10:55:46.996Z,1016.93
2022-11-10T10:56:46.965Z,1016.92
2022-11-10T10:57:46.936Z,1017.00
2022-11-10T10:58:46.949Z,1016.95
2022-11-10T10:59:46.929Z,1016.96
2022-11-10T11:00:46.945Z,1016.97
2022-11-10T11:01:46.942Z,1016.93
2022-11-10T11:02:46.905Z,1016.98
2022-11-10T11:03:46.868Z,1016.97
2022-11-10T11:04:46.861Z,1017.00
2022-11-10T11:05:46.853Z,1017.02
2022-11-10T11:06:46.973Z,1016.93
2022-11-10T11:07:46.829Z,1016.90
2022-11-10T11:08:46.813Z,1016.95
2022-11-10T11:09:46.833Z,1016.87
2022-11-10T11:10:46.797Z,1016.83
2022-11-10T11:11:46.842Z,1016.87
2022-11-10T11:12:46.791Z,1016.88
2022-11-10T11:13:46.761Z,1016.86
2022-11-10T11:14:46.767Z,1016.86
2022-11-10T11:15:46.727Z,1016.89
2022-11-10T11:16:46.766Z,1016.89
2022-11-10T11:17:46.727Z,1016.94
2022-11-10T11:18:46.686Z,1016.94
2022-11-10T11:19:46.709Z,1017.02
2022-11-10T11:20:46.680Z,1017.02
2022-11-10T11:21:46.685Z,1017.00
2022-11-10T11:22:46.665Z,1017.03
2022-11-10T11:23:47.648Z,1017.02
2022-11-10T11:24:46.631Z,1017.04
2022-11-10T11:25:46.604Z,1017.05
2022-11-10T11:26:46.625Z,1017.04
2022-11-10T11:27:46.575Z,1017.10
2022-11-10T11:28:46.570Z,1017.06
2022-11-10T11:29:46.570Z,1017.06
2022-11-10T11:30:46.578Z,1017.00
2022-11-10T11:31:46.609Z,1017.09
2022-11-10T11:32:46.559Z,1017.15
2022-11-10T11:33:46.536Z,1017.18
2022-11-10T11:34:46.551Z,1017.23
2022-11-10T11:35:46.511Z,1017.24
2022-11-10T11:36:46.496Z,1017.17
2022-11-10T11:37:46.518Z,1017.17
2022-11-10T11:38:46.474Z,1017.19
2022-11-10T11:39:46.481Z,1017.19
2022-11-10T11:40:46.443Z,1017.16
2022-11-10T11:41:46.452Z,1017.14
2022-11-10T11:42:46.467Z,1017.16
2022-11-10T11:43:46.413Z,1017.16
2022-11-10T11:44:46.413Z,1017.16
2022-11-10T11:45:46.394Z,1017.17
2022-11-10T11:46:49.282Z,1017.22
2022-11-10T11:47:46.422Z,1017.23
2022-11-10T11:48:46.372Z,1017.17
2022-11-10T11:49:46.369Z,1017.21
2022-11-10T11:50:46.355Z,1017.15
2022-11-10T11:51:46.308Z,1017.17
2022-11-10T11:52:46.374Z,1017.13
2022-11-10T11:53:46.304Z,1017.12
2022-11-10T11:54:46.299Z,1017.17
2022-11-10T11:55:46.312Z,1017.24
2022-11-10T11:56:46.351Z,1017.26
2022-11-10T11:57:46.280Z,1017.27
2022-11-10T11:58:46.248Z,1017.32
2022-11-10T11:59:46.242Z,1017.18
2022-11-10T12:00:46.233Z,1017.21
2022-11-10T12:01:46.217Z,1017.24
2022-11-10T12:02:50.178Z,1017.24
2022-11-10T12:03:47.194Z,1017.27
2022-11-10T12:04:46.184Z,1017.22
2022-11-10T12:05:46.168Z,1017.25